QTR3105 SVMC-SVMG
Flight info
| Callsign | QTR3105 |
|---|---|
| Flight time | 1h 18m |
| Altitude | 39000 |
| Route | SVMC 03L ASIBA1 MAU DCT UKLOT UP671 LOLAM DCT DOSRA UW19 CHALO EKONU SVMG 09 |
| Aircraft | B38M/M-SDC/C |
Departure
| Time | 2026-05-09 12:05 |
|---|---|
| Airport | La Chinita International Airport (SVMC) |
Arrival
| Time | 2026-05-09 13:24 |
|---|---|
| Airport | Del Caribe Santiago Mariño International Airport (SVMG) |
| Time | Latitude | Longitude | Altitude | Speed | Heading |
|---|---|---|---|---|---|
| 2026-05-09 11:50 | 10.55619 | -71.72466 | 212 ft | 0 kts | 295° |
| 2026-05-09 11:54 | 10.55619 | -71.72467 | 212 ft | 2 kts | 295° |
| 2026-05-09 11:54 | 10.55641 | -71.72519 | 221 ft | 15 kts | 289° |
| 2026-05-09 11:54 | 10.55692 | -71.72662 | 217 ft | 25 kts | 294° |
| 2026-05-09 11:55 | 10.55622 | -71.72773 | 215 ft | 26 kts | 204° |
| 2026-05-09 11:56 | 10.54689 | -71.73190 | 212 ft | 25 kts | 224° |
| 2026-05-09 11:56 | 10.54598 | -71.73286 | 218 ft | 0 kts | 227° |
| 2026-05-09 11:59 | 10.54591 | -71.73294 | 219 ft | 6 kts | 229° |
| 2026-05-09 11:59 | 10.54581 | -71.73355 | 224 ft | 12 kts | 283° |
| 2026-05-09 11:59 | 10.54635 | -71.73393 | 221 ft | 14 kts | 21° |
| 2026-05-09 12:00 | 10.54641 | -71.73391 | 221 ft | 0 kts | 21° |
| 2026-05-09 12:04 | 10.54642 | -71.73390 | 220 ft | 4 kts | 21° |
| 2026-05-09 12:04 | 10.54925 | -71.73270 | 217 ft | 89 kts | 22° |
| 2026-05-09 12:05 | 10.55750 | -71.72915 | 219 ft | 165 kts | 24° |
| 2026-05-09 12:05 | 10.56903 | -71.72413 | 719 ft | 187 kts | 24° |
| 2026-05-09 12:05 | 10.58083 | -71.71916 | 1745 ft | 185 kts | 24° |
| 2026-05-09 12:05 | 10.59317 | -71.71402 | 2563 ft | 201 kts | 24° |
| 2026-05-09 12:06 | 10.60623 | -71.70770 | 3402 ft | 213 kts | 38° |
| 2026-05-09 12:06 | 10.61613 | -71.69600 | 4171 ft | 229 kts | 66° |
| 2026-05-09 12:06 | 10.61954 | -71.67977 | 4944 ft | 246 kts | 93° |
| 2026-05-09 12:06 | 10.61534 | -71.66236 | 5725 ft | 263 kts | 109° |
| 2026-05-09 12:07 | 10.61209 | -71.64367 | 6610 ft | 273 kts | 88° |
| 2026-05-09 12:07 | 10.61391 | -71.62440 | 7716 ft | 276 kts | 85° |
| 2026-05-09 12:07 | 10.61609 | -71.60468 | 8662 ft | 283 kts | 84° |
| 2026-05-09 12:07 | 10.61845 | -71.58467 | 9647 ft | 287 kts | 84° |
| 2026-05-09 12:08 | 10.62095 | -71.56434 | 10544 ft | 294 kts | 83° |
| 2026-05-09 12:08 | 10.62360 | -71.54328 | 11244 ft | 307 kts | 83° |
| 2026-05-09 12:08 | 10.62641 | -71.52138 | 11936 ft | 316 kts | 83° |
| 2026-05-09 12:08 | 10.62926 | -71.49924 | 12895 ft | 317 kts | 83° |
| 2026-05-09 12:09 | 10.63216 | -71.47679 | 13682 ft | 323 kts | 83° |
| 2026-05-09 12:09 | 10.63511 | -71.45398 | 14446 ft | 328 kts | 83° |
| 2026-05-09 12:09 | 10.63810 | -71.43085 | 15204 ft | 332 kts | 83° |
| 2026-05-09 12:10 | 10.64724 | -71.36006 | 17290 ft | 345 kts | 83° |
| 2026-05-09 12:10 | 10.65038 | -71.33576 | 17967 ft | 348 kts | 83° |
| 2026-05-09 12:10 | 10.65355 | -71.31119 | 18593 ft | 352 kts | 83° |
| 2026-05-09 12:11 | 10.65675 | -71.28638 | 19210 ft | 355 kts | 83° |
| 2026-05-09 12:11 | 10.65997 | -71.26136 | 19809 ft | 358 kts | 83° |
| 2026-05-09 12:11 | 10.66322 | -71.23616 | 20362 ft | 362 kts | 82° |
| 2026-05-09 12:11 | 10.66649 | -71.21074 | 20932 ft | 364 kts | 82° |
| 2026-05-09 12:12 | 10.66980 | -71.18501 | 21477 ft | 367 kts | 82° |
| 2026-05-09 12:12 | 10.67312 | -71.15921 | 21982 ft | 371 kts | 82° |
| 2026-05-09 12:12 | 10.67647 | -71.13313 | 22510 ft | 372 kts | 82° |
| 2026-05-09 12:12 | 10.67981 | -71.10704 | 22935 ft | 373 kts | 82° |
| 2026-05-09 12:13 | 10.68316 | -71.08095 | 22969 ft | 370 kts | 82° |
| 2026-05-09 12:13 | 10.68536 | -71.06380 | 22970 ft | 369 kts | 82° |
| 2026-05-09 12:13 | 10.68808 | -71.03785 | 22963 ft | 369 kts | 88° |
| 2026-05-09 12:13 | 10.68811 | -71.01174 | 22968 ft | 369 kts | 88° |
| 2026-05-09 12:14 | 10.68841 | -70.98565 | 22977 ft | 369 kts | 88° |
| 2026-05-09 12:14 | 10.68899 | -70.95103 | 22978 ft | 369 kts | 88° |
| 2026-05-09 12:14 | 10.68933 | -70.93341 | 22980 ft | 369 kts | 88° |
| 2026-05-09 12:14 | 10.68987 | -70.90734 | 22981 ft | 369 kts | 88° |
| 2026-05-09 12:15 | 10.69042 | -70.88125 | 22980 ft | 369 kts | 87° |
| 2026-05-09 12:15 | 10.69096 | -70.85547 | 22980 ft | 369 kts | 87° |
| 2026-05-09 12:15 | 10.69151 | -70.82905 | 22987 ft | 369 kts | 87° |
| 2026-05-09 12:15 | 10.69204 | -70.80291 | 22987 ft | 369 kts | 88° |
| 2026-05-09 12:16 | 10.69258 | -70.77683 | 22991 ft | 369 kts | 88° |
| 2026-05-09 12:16 | 10.69312 | -70.75107 | 22979 ft | 368 kts | 88° |
| 2026-05-09 12:16 | 10.69366 | -70.72509 | 22978 ft | 367 kts | 88° |
| 2026-05-09 12:16 | 10.69420 | -70.69913 | 22972 ft | 367 kts | 88° |
| 2026-05-09 12:17 | 10.69473 | -70.67321 | 22971 ft | 367 kts | 88° |
| 2026-05-09 12:17 | 10.69527 | -70.64727 | 22971 ft | 367 kts | 88° |
| 2026-05-09 12:17 | 10.69580 | -70.62133 | 23432 ft | 365 kts | 88° |
| 2026-05-09 12:17 | 10.69632 | -70.59543 | 23909 ft | 369 kts | 88° |
| 2026-05-09 12:18 | 10.69685 | -70.56917 | 24319 ft | 373 kts | 88° |
| 2026-05-09 12:18 | 10.69739 | -70.54273 | 24770 ft | 376 kts | 88° |
| 2026-05-09 12:18 | 10.69792 | -70.51608 | 25198 ft | 379 kts | 88° |
| 2026-05-09 12:18 | 10.69846 | -70.48946 | 25589 ft | 383 kts | 88° |
| 2026-05-09 12:19 | 10.69900 | -70.46225 | 25973 ft | 386 kts | 88° |
| 2026-05-09 12:19 | 10.69954 | -70.43481 | 26361 ft | 390 kts | 88° |
| 2026-05-09 12:19 | 10.70009 | -70.40708 | 26735 ft | 394 kts | 88° |
| 2026-05-09 12:19 | 10.70064 | -70.37916 | 27126 ft | 396 kts | 88° |
| 2026-05-09 12:20 | 10.70070 | -70.35097 | 27486 ft | 400 kts | 91° |
| 2026-05-09 12:20 | 10.69995 | -70.32255 | 27802 ft | 404 kts | 91° |
| 2026-05-09 12:20 | 10.69930 | -70.29379 | 28142 ft | 408 kts | 91° |
| 2026-05-09 12:20 | 10.69869 | -70.26485 | 28486 ft | 411 kts | 91° |
| 2026-05-09 12:21 | 10.69807 | -70.23575 | 28828 ft | 414 kts | 91° |
| 2026-05-09 12:21 | 10.69745 | -70.20626 | 29005 ft | 418 kts | 91° |
| 2026-05-09 12:21 | 10.69684 | -70.17714 | 29003 ft | 417 kts | 91° |
| 2026-05-09 12:22 | 10.69558 | -70.11821 | 29008 ft | 417 kts | 91° |
| 2026-05-09 12:22 | 10.69431 | -70.05922 | 29018 ft | 417 kts | 91° |
| 2026-05-09 12:23 | 10.69303 | -70.00019 | 29018 ft | 418 kts | 91° |
| 2026-05-09 12:23 | 10.69173 | -69.94129 | 29024 ft | 417 kts | 91° |
| 2026-05-09 12:24 | 10.69043 | -69.88240 | 29026 ft | 416 kts | 91° |
| 2026-05-09 12:24 | 10.68912 | -69.82350 | 29036 ft | 416 kts | 91° |
| 2026-05-09 12:25 | 10.68786 | -69.76461 | 29036 ft | 416 kts | 90° |
| 2026-05-09 12:25 | 10.68707 | -69.70577 | 29035 ft | 416 kts | 90° |
| 2026-05-09 12:26 | 10.68625 | -69.64694 | 29042 ft | 416 kts | 90° |
| 2026-05-09 12:26 | 10.68540 | -69.58811 | 29047 ft | 416 kts | 90° |
| 2026-05-09 12:27 | 10.68455 | -69.52965 | 29048 ft | 416 kts | 90° |
| 2026-05-09 12:27 | 10.68369 | -69.47077 | 29047 ft | 416 kts | 90° |
| 2026-05-09 12:28 | 10.68281 | -69.41202 | 29045 ft | 415 kts | 90° |
| 2026-05-09 12:28 | 10.68193 | -69.35329 | 29043 ft | 416 kts | 90° |
| 2026-05-09 12:29 | 10.68103 | -69.29447 | 29051 ft | 416 kts | 90° |
| 2026-05-09 12:29 | 10.68012 | -69.23560 | 29044 ft | 415 kts | 90° |
| 2026-05-09 12:30 | 10.67919 | -69.17693 | 29045 ft | 415 kts | 90° |
| 2026-05-09 12:30 | 10.67780 | -69.08890 | 29042 ft | 415 kts | 90° |
| 2026-05-09 12:31 | 10.67638 | -69.00122 | 29039 ft | 416 kts | 90° |
| 2026-05-09 12:32 | 10.67541 | -68.94238 | 29043 ft | 416 kts | 89° |
| 2026-05-09 12:32 | 10.67444 | -68.88355 | 29037 ft | 416 kts | 89° |
| 2026-05-09 12:33 | 10.67345 | -68.82472 | 29034 ft | 416 kts | 89° |
| 2026-05-09 12:33 | 10.67245 | -68.76582 | 29033 ft | 416 kts | 89° |
| 2026-05-09 12:34 | 10.67144 | -68.70701 | 29027 ft | 416 kts | 89° |
| 2026-05-09 12:34 | 10.67042 | -68.64817 | 29026 ft | 416 kts | 89° |
| 2026-05-09 12:35 | 10.66939 | -68.58931 | 29023 ft | 416 kts | 89° |
| 2026-05-09 12:35 | 10.66835 | -68.53045 | 29019 ft | 416 kts | 89° |
| 2026-05-09 12:36 | 10.66730 | -68.47169 | 29017 ft | 416 kts | 89° |
| 2026-05-09 12:36 | 10.66623 | -68.41288 | 29016 ft | 416 kts | 89° |
| 2026-05-09 12:37 | 10.66516 | -68.35439 | 29008 ft | 416 kts | 89° |
| 2026-05-09 12:37 | 10.66407 | -68.29551 | 29007 ft | 417 kts | 89° |
| 2026-05-09 12:38 | 10.66299 | -68.23660 | 29010 ft | 417 kts | 89° |
| 2026-05-09 12:38 | 10.66188 | -68.17770 | 29008 ft | 416 kts | 89° |
| 2026-05-09 12:39 | 10.66679 | -68.11930 | 29009 ft | 414 kts | 82° |
| 2026-05-09 12:39 | 10.67328 | -68.06112 | 29008 ft | 414 kts | 82° |
| 2026-05-09 12:40 | 10.67972 | -68.00297 | 29000 ft | 414 kts | 82° |
| 2026-05-09 12:40 | 10.68616 | -67.94480 | 28998 ft | 413 kts | 81° |
| 2026-05-09 12:41 | 10.69254 | -67.88707 | 28996 ft | 413 kts | 81° |
| 2026-05-09 12:41 | 10.69895 | -67.82894 | 28990 ft | 413 kts | 81° |
| 2026-05-09 12:42 | 10.70533 | -67.77092 | 28994 ft | 413 kts | 81° |
| 2026-05-09 12:42 | 10.71172 | -67.71284 | 28988 ft | 413 kts | 81° |
| 2026-05-09 12:43 | 10.71808 | -67.65487 | 28993 ft | 413 kts | 82° |
| 2026-05-09 12:43 | 10.72445 | -67.59672 | 28995 ft | 413 kts | 82° |
| 2026-05-09 12:44 | 10.73079 | -67.53875 | 28988 ft | 413 kts | 82° |
| 2026-05-09 12:44 | 10.73711 | -67.48077 | 28992 ft | 412 kts | 81° |
| 2026-05-09 12:45 | 10.74343 | -67.42286 | 28988 ft | 411 kts | 81° |
| 2026-05-09 12:45 | 10.74968 | -67.36537 | 28989 ft | 411 kts | 81° |
| 2026-05-09 12:46 | 10.75596 | -67.30754 | 28988 ft | 411 kts | 81° |
| 2026-05-09 12:46 | 10.76223 | -67.24965 | 28989 ft | 411 kts | 81° |
| 2026-05-09 12:47 | 10.76848 | -67.19192 | 28988 ft | 411 kts | 81° |
| 2026-05-09 12:47 | 10.77472 | -67.13414 | 28989 ft | 411 kts | 81° |
| 2026-05-09 12:48 | 10.78094 | -67.07637 | 28989 ft | 410 kts | 81° |
| 2026-05-09 12:48 | 10.78712 | -67.01902 | 28989 ft | 410 kts | 81° |
| 2026-05-09 12:49 | 10.79331 | -66.96138 | 28991 ft | 410 kts | 81° |
| 2026-05-09 12:49 | 10.79950 | -66.90369 | 28989 ft | 410 kts | 81° |
| 2026-05-09 12:50 | 10.80566 | -66.84614 | 28988 ft | 409 kts | 81° |
| 2026-05-09 12:50 | 10.81181 | -66.78856 | 28989 ft | 409 kts | 81° |
| 2026-05-09 12:51 | 10.81795 | -66.73102 | 28992 ft | 409 kts | 81° |
| 2026-05-09 12:51 | 10.82101 | -66.70233 | 28759 ft | 407 kts | 81° |
| 2026-05-09 12:51 | 10.82405 | -66.67376 | 28516 ft | 405 kts | 81° |
| 2026-05-09 12:51 | 10.82707 | -66.64534 | 28270 ft | 403 kts | 81° |
| 2026-05-09 12:52 | 10.83008 | -66.61702 | 28028 ft | 400 kts | 81° |
| 2026-05-09 12:52 | 10.83302 | -66.58934 | 27781 ft | 398 kts | 81° |
| 2026-05-09 12:52 | 10.83597 | -66.56148 | 27541 ft | 395 kts | 81° |
| 2026-05-09 12:52 | 10.83891 | -66.53373 | 27300 ft | 393 kts | 81° |
| 2026-05-09 12:53 | 10.84183 | -66.50618 | 27059 ft | 390 kts | 81° |
| 2026-05-09 12:53 | 10.84472 | -66.47884 | 26816 ft | 388 kts | 81° |
| 2026-05-09 12:53 | 10.84760 | -66.45163 | 26575 ft | 385 kts | 81° |
| 2026-05-09 12:53 | 10.85046 | -66.42457 | 26339 ft | 383 kts | 82° |
| 2026-05-09 12:54 | 10.85329 | -66.39765 | 26093 ft | 381 kts | 82° |
| 2026-05-09 12:54 | 10.85611 | -66.37092 | 25854 ft | 378 kts | 82° |
| 2026-05-09 12:54 | 10.85890 | -66.34444 | 25616 ft | 376 kts | 82° |
| 2026-05-09 12:54 | 10.86169 | -66.31804 | 25361 ft | 374 kts | 82° |
| 2026-05-09 12:55 | 10.86445 | -66.29176 | 25144 ft | 371 kts | 82° |
| 2026-05-09 12:55 | 10.86718 | -66.26571 | 24902 ft | 370 kts | 82° |
| 2026-05-09 12:55 | 10.86990 | -66.23980 | 24665 ft | 367 kts | 82° |
| 2026-05-09 12:55 | 10.87261 | -66.21398 | 24430 ft | 365 kts | 82° |
| 2026-05-09 12:56 | 10.87530 | -66.18838 | 24194 ft | 363 kts | 82° |
| 2026-05-09 12:56 | 10.87797 | -66.16288 | 23957 ft | 361 kts | 82° |
| 2026-05-09 12:56 | 10.88063 | -66.13755 | 23733 ft | 360 kts | 82° |
| 2026-05-09 12:56 | 10.88327 | -66.11226 | 23493 ft | 358 kts | 82° |
| 2026-05-09 12:57 | 10.88590 | -66.08707 | 23256 ft | 358 kts | 82° |
| 2026-05-09 12:57 | 10.88854 | -66.06193 | 23022 ft | 357 kts | 82° |
| 2026-05-09 12:57 | 10.89111 | -66.03725 | 22790 ft | 356 kts | 82° |
| 2026-05-09 12:57 | 10.89372 | -66.01223 | 22554 ft | 355 kts | 83° |
| 2026-05-09 12:58 | 10.89632 | -65.98730 | 22318 ft | 354 kts | 83° |
| 2026-05-09 12:58 | 10.89811 | -65.96227 | 22076 ft | 355 kts | 89° |
| 2026-05-09 12:58 | 10.89788 | -65.93712 | 21839 ft | 355 kts | 89° |
| 2026-05-09 12:58 | 10.89789 | -65.91204 | 21609 ft | 354 kts | 89° |
| 2026-05-09 12:59 | 10.89799 | -65.88699 | 21363 ft | 354 kts | 89° |
| 2026-05-09 12:59 | 10.89816 | -65.86192 | 21123 ft | 353 kts | 89° |
| 2026-05-09 12:59 | 10.89834 | -65.83700 | 20883 ft | 352 kts | 89° |
| 2026-05-09 12:59 | 10.89853 | -65.81215 | 20640 ft | 351 kts | 89° |
| 2026-05-09 13:00 | 10.89871 | -65.78735 | 20404 ft | 350 kts | 89° |
| 2026-05-09 13:00 | 10.89889 | -65.76258 | 20164 ft | 349 kts | 89° |
| 2026-05-09 13:00 | 10.89908 | -65.73793 | 19923 ft | 348 kts | 89° |
| 2026-05-09 13:00 | 10.89920 | -65.72164 | 19769 ft | 347 kts | 89° |
| 2026-05-09 13:01 | 10.89944 | -65.68887 | 19438 ft | 346 kts | 89° |
| 2026-05-09 13:01 | 10.89956 | -65.67267 | 19280 ft | 345 kts | 89° |
| 2026-05-09 13:01 | 10.89973 | -65.64828 | 19055 ft | 344 kts | 89° |
| 2026-05-09 13:01 | 10.89990 | -65.62401 | 18992 ft | 344 kts | 89° |
| 2026-05-09 13:02 | 10.90008 | -65.59961 | 18986 ft | 344 kts | 89° |
| 2026-05-09 13:02 | 10.90030 | -65.56731 | 18796 ft | 343 kts | 89° |
| 2026-05-09 13:02 | 10.90047 | -65.54303 | 18560 ft | 343 kts | 89° |
| 2026-05-09 13:02 | 10.90058 | -65.52669 | 18395 ft | 342 kts | 89° |
| 2026-05-09 13:03 | 10.90073 | -65.50305 | 18158 ft | 341 kts | 90° |
| 2026-05-09 13:03 | 10.90089 | -65.47898 | 17915 ft | 340 kts | 90° |
| 2026-05-09 13:03 | 10.90105 | -65.45499 | 17672 ft | 339 kts | 90° |
| 2026-05-09 13:03 | 10.90120 | -65.43133 | 17436 ft | 338 kts | 90° |
| 2026-05-09 13:04 | 10.90135 | -65.40746 | 17194 ft | 336 kts | 90° |
| 2026-05-09 13:04 | 10.90150 | -65.38371 | 16944 ft | 336 kts | 90° |
| 2026-05-09 13:04 | 10.90165 | -65.35993 | 16700 ft | 335 kts | 90° |
| 2026-05-09 13:04 | 10.90179 | -65.33628 | 16452 ft | 334 kts | 90° |
| 2026-05-09 13:05 | 10.90194 | -65.31275 | 16215 ft | 332 kts | 90° |
| 2026-05-09 13:05 | 10.90207 | -65.28928 | 15970 ft | 331 kts | 90° |
| 2026-05-09 13:05 | 10.90222 | -65.26591 | 15727 ft | 329 kts | 90° |
| 2026-05-09 13:05 | 10.90235 | -65.24262 | 15481 ft | 328 kts | 90° |
| 2026-05-09 13:06 | 10.90248 | -65.21944 | 15237 ft | 327 kts | 90° |
| 2026-05-09 13:06 | 10.90262 | -65.19630 | 14994 ft | 326 kts | 90° |
| 2026-05-09 13:06 | 10.90274 | -65.17330 | 14747 ft | 325 kts | 90° |
| 2026-05-09 13:06 | 10.90287 | -65.15034 | 14498 ft | 324 kts | 90° |
| 2026-05-09 13:07 | 10.90300 | -65.12747 | 14263 ft | 323 kts | 90° |
| 2026-05-09 13:07 | 10.90312 | -65.10466 | 14014 ft | 322 kts | 90° |
| 2026-05-09 13:07 | 10.90325 | -65.08190 | 13769 ft | 321 kts | 90° |
| 2026-05-09 13:07 | 10.90336 | -65.05922 | 13525 ft | 321 kts | 90° |
| 2026-05-09 13:08 | 10.90348 | -65.03656 | 13279 ft | 320 kts | 90° |
| 2026-05-09 13:08 | 10.90359 | -65.01424 | 13037 ft | 319 kts | 90° |
| 2026-05-09 13:08 | 10.90370 | -64.99174 | 12792 ft | 317 kts | 90° |
| 2026-05-09 13:08 | 10.90382 | -64.96934 | 12550 ft | 316 kts | 90° |
| 2026-05-09 13:09 | 10.90393 | -64.94693 | 12305 ft | 316 kts | 90° |
| 2026-05-09 13:09 | 10.90404 | -64.92462 | 12054 ft | 315 kts | 90° |
| 2026-05-09 13:09 | 10.90414 | -64.90235 | 11808 ft | 314 kts | 90° |
| 2026-05-09 13:09 | 10.90424 | -64.88020 | 11567 ft | 312 kts | 90° |
| 2026-05-09 13:10 | 10.90434 | -64.85817 | 11324 ft | 311 kts | 90° |
| 2026-05-09 13:10 | 10.90445 | -64.83621 | 11078 ft | 309 kts | 90° |
| 2026-05-09 13:10 | 10.90454 | -64.81441 | 11001 ft | 307 kts | 90° |
| 2026-05-09 13:10 | 10.90464 | -64.79293 | 10986 ft | 308 kts | 90° |
| 2026-05-09 13:11 | 10.90473 | -64.77117 | 10978 ft | 308 kts | 90° |
| 2026-05-09 13:11 | 10.90482 | -64.74934 | 10973 ft | 308 kts | 90° |
| 2026-05-09 13:11 | 10.90491 | -64.72754 | 10973 ft | 308 kts | 90° |
| 2026-05-09 13:11 | 10.90500 | -64.70574 | 10978 ft | 308 kts | 90° |
| 2026-05-09 13:12 | 10.90509 | -64.68397 | 10973 ft | 307 kts | 90° |
| 2026-05-09 13:12 | 10.90518 | -64.66272 | 10967 ft | 292 kts | 90° |
| 2026-05-09 13:12 | 10.90528 | -64.64247 | 10970 ft | 282 kts | 89° |
| 2026-05-09 13:12 | 10.90553 | -64.62255 | 10760 ft | 283 kts | 89° |
| 2026-05-09 13:13 | 10.90582 | -64.60251 | 10414 ft | 283 kts | 89° |
| 2026-05-09 13:13 | 10.90608 | -64.58251 | 10066 ft | 281 kts | 89° |
| 2026-05-09 13:13 | 10.90634 | -64.56283 | 9774 ft | 276 kts | 89° |
| 2026-05-09 13:13 | 10.90658 | -64.54337 | 9409 ft | 275 kts | 89° |
| 2026-05-09 13:14 | 10.90684 | -64.52404 | 9053 ft | 272 kts | 89° |
| 2026-05-09 13:14 | 10.90709 | -64.50484 | 8698 ft | 270 kts | 89° |
| 2026-05-09 13:16 | 10.90869 | -64.37555 | 6319 ft | 254 kts | 89° |
| 2026-05-09 13:16 | 10.90892 | -64.35766 | 5994 ft | 251 kts | 89° |
| 2026-05-09 13:16 | 10.90915 | -64.34000 | 5755 ft | 248 kts | 89° |
| 2026-05-09 13:16 | 10.90937 | -64.32238 | 5521 ft | 251 kts | 89° |
| 2026-05-09 13:17 | 10.90959 | -64.30454 | 5212 ft | 253 kts | 89° |
| 2026-05-09 13:17 | 10.90977 | -64.28667 | 4879 ft | 252 kts | 89° |
| 2026-05-09 13:17 | 10.91000 | -64.26882 | 4545 ft | 252 kts | 89° |
| 2026-05-09 13:17 | 10.90995 | -64.25103 | 4217 ft | 250 kts | 92° |
| 2026-05-09 13:18 | 10.90769 | -64.23379 | 4056 ft | 240 kts | 102° |
| 2026-05-09 13:18 | 10.90305 | -64.21825 | 3934 ft | 218 kts | 108° |
| 2026-05-09 13:18 | 10.89813 | -64.20445 | 3842 ft | 196 kts | 109° |
| 2026-05-09 13:18 | 10.89351 | -64.19105 | 3656 ft | 205 kts | 104° |
| 2026-05-09 13:19 | 10.89013 | -64.17735 | 3697 ft | 194 kts | 103° |
| 2026-05-09 13:19 | 10.88699 | -64.16456 | 3680 ft | 185 kts | 103° |
| 2026-05-09 13:19 | 10.88355 | -64.15271 | 3692 ft | 165 kts | 106° |
| 2026-05-09 13:19 | 10.88068 | -64.14173 | 3451 ft | 158 kts | 102° |
| 2026-05-09 13:20 | 10.87868 | -64.13085 | 3135 ft | 155 kts | 95° |
| 2026-05-09 13:20 | 10.87903 | -64.11991 | 2726 ft | 158 kts | 83° |
| 2026-05-09 13:20 | 10.88105 | -64.10875 | 2376 ft | 160 kts | 78° |
| 2026-05-09 13:20 | 10.88369 | -64.09803 | 2211 ft | 156 kts | 76° |
| 2026-05-09 13:21 | 10.88645 | -64.08728 | 2061 ft | 160 kts | 76° |
| 2026-05-09 13:21 | 10.88936 | -64.07617 | 1957 ft | 161 kts | 76° |
| 2026-05-09 13:21 | 10.89198 | -64.06549 | 1841 ft | 152 kts | 78° |
| 2026-05-09 13:21 | 10.89448 | -64.05497 | 1802 ft | 153 kts | 77° |
| 2026-05-09 13:22 | 10.89684 | -64.04455 | 1586 ft | 149 kts | 79° |
| 2026-05-09 13:22 | 10.89881 | -64.03432 | 1279 ft | 147 kts | 79° |
| 2026-05-09 13:22 | 10.90085 | -64.02418 | 1039 ft | 148 kts | 79° |
| 2026-05-09 13:23 | 10.90911 | -63.98387 | 161 ft | 136 kts | 79° |
| 2026-05-09 13:23 | 10.91091 | -63.97498 | 66 ft | 115 kts | 78° |
| 2026-05-09 13:24 | 10.91209 | -63.96927 | 59 ft | 61 kts | 78° |
| 2026-05-09 13:24 | 10.91286 | -63.96553 | 60 ft | 40 kts | 77° |
| 2026-05-09 13:24 | 10.91353 | -63.96464 | 59 ft | 17 kts | 351° |
| 2026-05-09 13:24 | 10.91412 | -63.96475 | 61 ft | 12 kts | 348° |
| 2026-05-09 13:25 | 10.91460 | -63.96524 | 62 ft | 16 kts | 275° |
| 2026-05-09 13:25 | 10.91434 | -63.96677 | 59 ft | 25 kts | 258° |
| 2026-05-09 13:25 | 10.91381 | -63.96984 | 57 ft | 14 kts | 289° |
| 2026-05-09 13:26 | 10.91455 | -63.97008 | 58 ft | 3 kts | 21° |
| 2026-05-09 13:26 | 10.91478 | -63.96988 | 63 ft | 3 kts | 54° |
| 2026-05-09 13:26 | 10.91499 | -63.96969 | 63 ft | 3 kts | 18° |
| 2026-05-09 13:26 | 10.91534 | -63.96971 | 63 ft | 8 kts | 349° |
| 2026-05-09 13:27 | 10.91554 | -63.96975 | 63 ft | 2 kts | 349° |
| 2026-05-09 13:27 | 10.91558 | -63.96976 | 63 ft | 0 kts | 349° |